createdAt,value
2023-03-01T00:01:26.700Z,99.90
2023-03-01T00:03:56.220Z,1.00
2023-03-01T00:06:24.958Z,1.00
2023-03-01T00:11:26.522Z,99.90
2023-03-01T00:13:56.742Z,99.90
2023-03-01T00:16:27.808Z,99.90
2023-03-01T00:18:56.910Z,99.90
2023-03-01T00:21:24.923Z,99.90
2023-03-01T00:26:21.949Z,99.90
2023-03-01T00:31:20.191Z,1.00
2023-03-01T00:36:17.075Z,99.90
2023-03-01T00:38:46.982Z,99.90
2023-03-01T00:41:17.003Z,99.90
2023-03-01T00:46:16.159Z,99.90
2023-03-01T00:48:45.605Z,99.90
2023-03-01T00:51:17.350Z,1.00
2023-03-01T00:56:15.726Z,1.00
2023-03-01T00:58:45.265Z,1.00
2023-03-01T01:01:18.732Z,1.00
2023-03-01T01:03:49.618Z,1.00
2023-03-01T01:06:26.672Z,99.90
2023-03-01T01:08:55.850Z,1.00
2023-03-01T01:11:25.559Z,99.90
2023-03-01T01:13:54.480Z,99.90
2023-03-01T01:16:23.492Z,99.90
2023-03-01T01:21:22.451Z,1.00
2023-03-01T01:23:50.707Z,1.00
2023-03-01T01:26:23.781Z,1.00
2023-03-01T01:28:52.078Z,1.00
2023-03-01T01:33:48.326Z,1.00
2023-03-01T01:36:15.812Z,1.00
2023-03-01T01:38:43.838Z,99.90
2023-03-01T01:41:13.196Z,1.00
2023-03-01T01:43:52.905Z,1.00
2023-03-01T01:46:33.197Z,1.00
2023-03-01T01:49:11.225Z,1.00
2023-03-01T01:51:43.265Z,1.00
2023-03-01T01:54:19.756Z,1.00
2023-03-01T01:56:52.174Z,1.00
2023-03-01T01:59:25.946Z,1.00
2023-03-01T02:01:54.181Z,1.00
2023-03-01T02:04:23.104Z,1.00
2023-03-01T02:07:03.971Z,1.00
2023-03-01T02:09:33.380Z,1.00
2023-03-01T02:12:05.466Z,1.00
2023-03-01T02:17:01.175Z,1.00
2023-03-01T02:19:47.484Z,1.00
2023-03-01T02:22:25.242Z,1.00
2023-03-01T02:25:05.789Z,1.00
2023-03-01T02:27:57.902Z,1.00
2023-03-01T02:33:04.146Z,1.00
2023-03-01T02:35:39.343Z,1.00
2023-03-01T02:38:09.918Z,1.00
2023-03-01T02:40:40.614Z,1.00
2023-03-01T02:43:11.512Z,1.00
2023-03-01T02:45:49.267Z,1.00
2023-03-01T02:48:16.627Z,1.00
2023-03-01T02:51:04.630Z,1.00
2023-03-01T02:53:47.964Z,1.00
2023-03-01T02:58:52.304Z,1.00
2023-03-01T03:03:48.930Z,1.00
2023-03-01T03:11:13.059Z,1.00
2023-03-01T03:18:46.531Z,1.00
2023-03-01T03:21:15.144Z,1.00
2023-03-01T03:23:42.571Z,1.00
2023-03-01T03:36:08.322Z,1.00
2023-03-01T03:38:36.029Z,1.00
2023-03-01T03:41:08.460Z,1.00
2023-03-01T03:43:38.359Z,1.00
2023-03-01T03:48:36.323Z,99.90
2023-03-01T03:56:02.807Z,99.90
2023-03-01T04:03:27.909Z,99.90
2023-03-01T04:08:24.958Z,1.00
2023-03-01T04:10:57.671Z,1.00
2023-03-01T04:13:26.799Z,1.00
2023-03-01T04:15:56.017Z,1.00
2023-03-01T04:18:26.274Z,1.00
2023-03-01T04:20:56.537Z,1.00
2023-03-01T04:23:24.438Z,1.00
2023-03-01T04:25:56.587Z,1.00
2023-03-01T04:28:35.824Z,24.70
2023-03-01T04:31:17.317Z,1.00
2023-03-01T04:33:49.962Z,1.00
2023-03-01T04:36:18.941Z,1.00
2023-03-01T04:41:20.262Z,1.00
2023-03-01T04:43:47.705Z,1.00
2023-03-01T04:46:19.038Z,1.00
2023-03-01T04:51:17.378Z,1.00
2023-03-01T04:53:45.660Z,99.90
2023-03-01T04:58:43.231Z,99.90
2023-03-01T05:01:20.947Z,1.00
2023-03-01T05:03:50.747Z,1.00
2023-03-01T05:06:20.681Z,99.90
2023-03-01T05:11:16.450Z,99.90
2023-03-01T05:18:42.166Z,99.90
2023-03-01T05:21:13.209Z,99.90
2023-03-01T05:23:41.026Z,1.00
2023-03-01T05:26:16.193Z,1.00
2023-03-01T05:36:14.311Z,1.00
2023-03-01T05:41:17.281Z,1.00
2023-03-01T05:43:46.265Z,1.00
2023-03-01T05:46:16.452Z,1.00
2023-03-01T05:48:45.435Z,1.00
2023-03-01T05:51:13.275Z,1.00
2023-03-01T05:53:40.832Z,1.00
2023-03-01T06:01:04.877Z,1.00
2023-03-01T06:13:24.979Z,1.00
2023-03-01T06:20:55.098Z,99.90
2023-03-01T06:48:06.085Z,99.90
2023-03-01T06:58:02.095Z,29.80
2023-03-01T07:03:03.073Z,1.00
2023-03-01T07:05:31.839Z,1.00
2023-03-01T07:12:58.765Z,99.90
2023-03-01T07:22:53.749Z,1.00
2023-03-01T07:27:53.455Z,1.00
2023-03-01T07:50:05.345Z,1.00
2023-03-01T08:17:15.499Z,1.00
2023-03-01T08:19:44.121Z,90.60
2023-03-01T08:27:07.139Z,1.00
2023-03-01T08:32:02.762Z,1.00
2023-03-01T08:37:00.154Z,1.20
2023-03-01T08:39:28.147Z,1.00
2023-03-01T08:44:23.986Z,1.00
2023-03-01T08:46:54.176Z,1.00
2023-03-01T08:51:49.980Z,1.00
2023-03-01T08:54:22.581Z,1.00
2023-03-01T08:56:50.820Z,1.00
2023-03-01T08:59:19.401Z,1.00
2023-03-01T09:01:46.776Z,1.00
2023-03-01T09:04:15.968Z,1.00
2023-03-01T09:06:43.637Z,1.00
2023-03-01T09:09:17.185Z,1.00
2023-03-01T09:11:51.432Z,1.00
2023-03-01T09:14:19.075Z,1.00
2023-03-01T09:16:46.564Z,1.00
2023-03-01T09:19:14.964Z,1.00
2023-03-01T09:21:42.429Z,1.00
2023-03-01T09:24:16.250Z,1.00
2023-03-01T09:26:48.081Z,1.00
2023-03-01T09:29:17.334Z,1.00
2023-03-01T09:31:44.607Z,1.00
2023-03-01T09:34:12.211Z,1.00
2023-03-01T09:36:39.367Z,1.00
2023-03-01T09:39:07.066Z,1.00
2023-03-01T09:41:43.430Z,1.00
2023-03-01T09:44:19.981Z,1.00
2023-03-01T09:46:47.628Z,1.00
2023-03-01T09:49:26.168Z,1.00
2023-03-01T09:52:01.936Z,1.00
2023-03-01T09:54:30.092Z,1.00
2023-03-01T09:57:16.070Z,1.00
2023-03-01T10:00:05.477Z,1.00
2023-03-01T10:02:50.955Z,1.00
2023-03-01T10:05:56.254Z,1.00
2023-03-01T10:08:31.022Z,1.00
2023-03-01T10:11:00.108Z,1.00
2023-03-01T10:13:36.690Z,1.00
2023-03-01T10:16:15.799Z,1.00
2023-03-01T10:18:47.412Z,1.00
2023-03-01T10:21:18.760Z,1.00
2023-03-01T10:23:46.847Z,1.00
2023-03-01T10:26:39.061Z,1.00
2023-03-01T10:29:08.906Z,1.00
2023-03-01T10:31:44.793Z,1.00
2023-03-01T10:34:19.445Z,1.00
2023-03-01T10:36:53.684Z,1.00
2023-03-01T10:39:24.252Z,1.00
2023-03-01T10:41:59.868Z,1.00
2023-03-01T10:44:47.833Z,1.00
2023-03-01T10:49:56.638Z,1.00
2023-03-01T10:52:34.439Z,1.00
2023-03-01T10:55:03.953Z,1.00
2023-03-01T10:57:39.413Z,14.90
2023-03-01T11:00:20.557Z,1.00
2023-03-01T11:03:04.492Z,1.00
2023-03-01T11:05:34.686Z,1.00
2023-03-01T11:08:04.410Z,1.00
2023-03-01T11:10:34.931Z,1.00
2023-03-01T11:13:16.286Z,1.00
2023-03-01T11:15:44.735Z,1.00
2023-03-01T11:18:33.920Z,1.00
2023-03-01T11:21:06.684Z,1.00
2023-03-01T11:23:34.506Z,1.00
2023-03-01T11:26:10.716Z,1.00
2023-03-01T11:28:43.090Z,1.00
2023-03-01T11:31:15.965Z,1.00
2023-03-01T11:34:29.286Z,1.00
2023-03-01T11:37:03.214Z,1.00
2023-03-01T11:40:01.060Z,1.00
2023-03-01T11:43:03.433Z,1.00
2023-03-01T11:45:59.438Z,1.00
2023-03-01T11:48:49.873Z,1.00
2023-03-01T11:51:49.011Z,1.00
2023-03-01T11:54:29.428Z,1.00
2023-03-01T11:57:15.640Z,1.00
2023-03-01T11:59:53.734Z,1.00
2023-03-01T12:02:55.508Z,1.00
2023-03-01T12:05:53.892Z,1.00
2023-03-01T12:08:27.343Z,1.00
2023-03-01T12:11:25.276Z,1.00
2023-03-01T12:14:14.314Z,1.00
2023-03-01T12:17:00.471Z,1.00
2023-03-01T12:19:53.584Z,1.00
2023-03-01T12:22:32.724Z,1.00
2023-03-01T12:25:04.319Z,1.00
2023-03-01T12:27:46.375Z,1.00
2023-03-01T12:30:38.498Z,1.00
2023-03-01T12:33:22.834Z,1.00
2023-03-01T12:36:01.315Z,1.00
2023-03-01T12:38:43.901Z,1.00
2023-03-01T12:42:02.390Z,1.00
2023-03-01T12:44:49.334Z,1.00
2023-03-01T12:47:25.120Z,1.00
2023-03-01T12:50:24.828Z,1.00
2023-03-01T12:52:59.716Z,1.00
2023-03-01T12:55:38.677Z,1.00
2023-03-01T12:58:40.369Z,1.00
2023-03-01T13:01:44.208Z,1.00
2023-03-01T13:04:46.010Z,1.00
2023-03-01T13:07:23.897Z,1.00
2023-03-01T13:10:10.029Z,1.00
2023-03-01T13:12:49.585Z,1.00
2023-03-01T13:15:23.407Z,1.00
2023-03-01T13:17:56.500Z,1.00
2023-03-01T13:20:47.623Z,1.00
2023-03-01T13:23:23.778Z,1.00
2023-03-01T13:26:00.389Z,1.00
2023-03-01T13:28:36.883Z,1.00
2023-03-01T13:31:06.753Z,1.00
2023-03-01T13:33:37.498Z,1.00
2023-03-01T13:36:08.187Z,1.00
2023-03-01T13:38:38.190Z,1.00
2023-03-01T13:41:06.901Z,1.00
2023-03-01T13:43:37.444Z,1.00
2023-03-01T13:46:31.261Z,1.00
2023-03-01T13:48:58.734Z,1.00
2023-03-01T13:51:29.101Z,1.00
2023-03-01T13:53:58.886Z,1.00
2023-03-01T13:56:34.364Z,1.00
2023-03-01T13:59:06.927Z,1.00
2023-03-01T14:01:37.410Z,1.00
2023-03-01T14:04:27.227Z,1.00
2023-03-01T14:07:13.827Z,1.00
2023-03-01T14:09:43.939Z,1.00
2023-03-01T14:12:31.395Z,1.00
2023-03-01T14:14:59.042Z,1.00
2023-03-01T14:17:34.599Z,1.00
2023-03-01T14:20:10.732Z,1.00
2023-03-01T14:22:42.081Z,1.00
2023-03-01T14:25:31.127Z,1.00
2023-03-01T14:28:05.917Z,1.00
2023-03-01T14:30:42.152Z,1.00
2023-03-01T14:33:24.354Z,1.00
2023-03-01T14:36:00.902Z,1.00
2023-03-01T14:38:46.656Z,1.00
2023-03-01T14:41:17.080Z,1.00
2023-03-01T14:44:16.965Z,1.00
2023-03-01T14:46:46.444Z,1.00
2023-03-01T14:49:21.876Z,1.00
2023-03-01T14:52:03.257Z,1.00
2023-03-01T14:54:46.334Z,1.00
2023-03-01T14:57:27.447Z,1.00
2023-03-01T14:59:59.744Z,1.00
2023-03-01T15:02:29.271Z,1.00
2023-03-01T15:05:07.189Z,1.00
2023-03-01T15:07:42.149Z,1.00
2023-03-01T15:10:26.857Z,1.00
2023-03-01T15:12:54.148Z,1.00
2023-03-01T15:15:32.328Z,1.00
2023-03-01T15:18:21.546Z,1.00
2023-03-01T15:20:50.879Z,1.00
2023-03-01T15:23:30.998Z,1.00
2023-03-01T15:25:59.698Z,1.00
2023-03-01T15:28:34.943Z,1.00
2023-03-01T15:31:13.611Z,1.00
2023-03-01T15:33:48.123Z,1.00
2023-03-01T15:36:40.855Z,1.00
2023-03-01T15:39:38.729Z,1.00
2023-03-01T15:42:43.596Z,1.00
2023-03-01T15:45:17.950Z,1.00
2023-03-01T15:48:06.892Z,1.00
2023-03-01T15:50:36.930Z,1.00
2023-03-01T15:53:19.329Z,1.00
2023-03-01T15:55:49.845Z,1.00
2023-03-01T15:58:21.790Z,1.00
2023-03-01T16:01:00.876Z,1.00
2023-03-01T16:03:30.260Z,1.00
2023-03-01T16:05:57.980Z,1.00
2023-03-01T16:08:25.814Z,1.00
2023-03-01T16:10:55.483Z,1.00
2023-03-01T16:13:23.399Z,1.00
2023-03-01T16:15:50.776Z,1.00
2023-03-01T16:18:18.488Z,1.00
2023-03-01T16:20:46.232Z,1.00
2023-03-01T16:23:15.424Z,1.00
2023-03-01T16:25:42.726Z,1.00
2023-03-01T16:28:11.223Z,1.00
2023-03-01T16:30:40.829Z,1.00
2023-03-01T16:33:26.268Z,1.00
2023-03-01T16:35:57.888Z,1.00
2023-03-01T16:38:25.575Z,1.00
2023-03-01T16:40:53.634Z,1.00
2023-03-01T16:43:21.593Z,1.00
2023-03-01T16:45:49.112Z,1.00
2023-03-01T16:48:16.919Z,1.00
2023-03-01T16:50:44.267Z,1.00
2023-03-01T16:53:12.193Z,1.00
2023-03-01T16:55:46.318Z,1.00
2023-03-01T16:58:16.593Z,1.00
2023-03-01T17:00:43.924Z,1.00
2023-03-01T17:03:12.189Z,1.00
2023-03-01T17:05:41.784Z,1.00
2023-03-01T17:08:09.357Z,1.00
2023-03-01T17:10:36.712Z,1.00
2023-03-01T17:13:04.787Z,1.00
2023-03-01T17:15:32.215Z,1.00
2023-03-01T17:17:59.861Z,1.00
2023-03-01T17:20:27.147Z,1.00
2023-03-01T17:22:54.952Z,1.00
2023-03-01T17:25:22.390Z,1.00
2023-03-01T17:27:50.146Z,1.00
2023-03-01T17:30:18.141Z,1.00
2023-03-01T17:35:14.118Z,1.00
2023-03-01T17:37:46.596Z,1.00
2023-03-01T17:40:14.384Z,1.00
2023-03-01T17:42:42.273Z,1.00
2023-03-01T17:45:09.997Z,1.00
2023-03-01T17:47:37.971Z,1.00
2023-03-01T17:50:06.771Z,1.00
2023-03-01T17:52:34.768Z,1.00
2023-03-01T17:55:02.450Z,1.00
2023-03-01T17:57:31.067Z,1.00
2023-03-01T17:59:59.274Z,1.00
2023-03-01T18:02:27.328Z,1.00
2023-03-01T18:04:59.414Z,1.00
2023-03-01T18:07:28.972Z,1.00
2023-03-01T18:09:56.938Z,3.20
2023-03-01T18:12:24.969Z,93.60
2023-03-01T18:14:54.857Z,1.00
2023-03-01T18:17:25.806Z,3.20
2023-03-01T18:37:18.412Z,99.90
2023-03-01T18:44:48.367Z,99.90
2023-03-01T18:49:45.039Z,99.90
2023-03-01T18:59:37.608Z,99.90
2023-03-01T19:02:05.872Z,99.90
2023-03-01T19:04:33.460Z,99.90
2023-03-01T19:07:02.367Z,99.90
2023-03-01T19:09:30.840Z,99.90
2023-03-01T19:14:30.073Z,99.90
2023-03-01T19:16:57.773Z,99.90
2023-03-01T19:22:05.231Z,99.90
2023-03-01T19:27:01.502Z,1.00
2023-03-01T19:29:29.138Z,1.00
2023-03-01T19:31:57.043Z,99.90
2023-03-01T19:36:54.026Z,1.00
2023-03-01T19:39:21.853Z,99.90
2023-03-01T19:41:50.322Z,99.90
2023-03-01T19:44:19.039Z,99.90
2023-03-01T19:46:46.953Z,1.00
2023-03-01T19:49:14.402Z,99.90
2023-03-01T19:51:42.585Z,1.00
2023-03-01T19:54:11.897Z,1.00
2023-03-01T19:56:41.089Z,1.00
2023-03-01T19:59:09.917Z,1.00
2023-03-01T20:01:43.332Z,1.00
2023-03-01T20:04:13.227Z,1.00
2023-03-01T20:06:41.810Z,1.00
2023-03-01T20:09:20.975Z,1.00
2023-03-01T20:16:52.887Z,1.00
2023-03-01T20:26:47.108Z,1.00
2023-03-01T20:34:23.497Z,1.00
2023-03-01T20:36:55.995Z,1.00
2023-03-01T20:46:51.113Z,1.00
2023-03-01T20:49:18.925Z,1.00
2023-03-01T21:11:35.729Z,1.00
2023-03-01T21:14:05.630Z,1.00
2023-03-01T21:29:04.631Z,1.00
2023-03-01T21:31:36.209Z,1.00
2023-03-01T21:34:06.750Z,1.00
2023-03-01T21:39:07.170Z,1.00
2023-03-01T21:41:37.649Z,1.00
2023-03-01T21:44:07.585Z,1.00
2023-03-01T21:46:39.031Z,1.00
2023-03-01T21:49:09.519Z,1.00
2023-03-01T21:51:37.745Z,1.00
2023-03-01T21:54:06.087Z,1.00
2023-03-01T21:56:39.390Z,1.00
2023-03-01T21:59:12.676Z,1.00
2023-03-01T22:01:40.572Z,1.00
2023-03-01T22:04:08.504Z,1.00
2023-03-01T22:06:41.068Z,1.00
2023-03-01T22:09:21.246Z,1.00
2023-03-01T22:11:54.846Z,1.00
2023-03-01T22:14:22.493Z,1.00
2023-03-01T22:16:51.991Z,1.00
2023-03-01T22:19:20.492Z,1.00
2023-03-01T22:21:52.278Z,1.00
2023-03-01T22:24:22.991Z,1.00
2023-03-01T22:26:52.696Z,1.00
2023-03-01T22:29:27.585Z,1.00
2023-03-01T22:31:57.057Z,47.30
2023-03-01T22:34:25.190Z,1.00
2023-03-01T22:36:53.440Z,1.00
2023-03-01T22:39:21.870Z,1.00
2023-03-01T22:41:50.365Z,1.00
2023-03-01T22:44:24.144Z,1.00
2023-03-01T22:46:52.504Z,1.00
2023-03-01T22:49:20.761Z,1.00
2023-03-01T22:51:49.338Z,1.00
2023-03-01T22:54:18.376Z,1.00
2023-03-01T22:56:46.689Z,1.00
2023-03-01T22:59:16.676Z,72.20
2023-03-01T23:01:46.602Z,1.00
2023-03-01T23:04:16.701Z,34.40
2023-03-01T23:06:50.647Z,91.50
2023-03-01T23:09:22.505Z,99.90
2023-03-01T23:11:51.906Z,15.60
2023-03-01T23:14:21.673Z,98.50
2023-03-01T23:16:50.539Z,24.70
2023-03-01T23:19:19.159Z,39.50
2023-03-01T23:24:20.169Z,99.90
2023-03-01T23:26:55.073Z,30.10
2023-03-01T23:29:22.802Z,46.70
2023-03-01T23:39:14.963Z,99.90
2023-03-01T23:41:42.631Z,99.90
2023-03-01T23:44:17.617Z,24.40
2023-03-01T23:46:47.008Z,90.40
2023-03-01T23:49:17.472Z,99.90
2023-03-01T23:51:47.848Z,52.60
2023-03-01T23:54:21.406Z,99.90
2023-03-01T23:59:20.182Z,99.90
